createdAt,value
2022-11-20T00:04:49.197Z,40.50
2022-11-20T00:09:56.243Z,38.90
2022-11-20T00:15:03.177Z,37.80
2022-11-20T00:20:12.381Z,37.50
2022-11-20T00:25:19.563Z,33.40
2022-11-20T00:30:26.569Z,37.10
2022-11-20T00:35:34.692Z,45.50
2022-11-20T00:40:41.665Z,37.50
2022-11-20T00:45:48.607Z,37.40
2022-11-20T00:50:55.829Z,33.60
2022-11-20T00:56:04.697Z,34.70
2022-11-20T01:01:13.594Z,35.00
2022-11-20T01:06:22.943Z,37.80
2022-11-20T01:11:32.109Z,39.30
2022-11-20T01:16:42.909Z,36.70
2022-11-20T01:21:52.157Z,34.70
2022-11-20T01:26:59.068Z,33.30
2022-11-20T01:32:06.177Z,32.40
2022-11-20T01:37:13.046Z,34.40
2022-11-20T01:42:37.892Z,38.70
2022-11-20T01:47:49.579Z,36.40
2022-11-20T01:53:01.058Z,30.90
2022-11-20T01:58:11.579Z,32.30
2022-11-20T02:03:21.441Z,30.50
2022-11-20T02:08:28.538Z,28.40
2022-11-20T02:13:45.864Z,31.00
2022-11-20T02:18:53.433Z,35.30
2022-11-20T02:24:14.878Z,34.70
2022-11-20T02:29:25.660Z,33.30
2022-11-20T02:34:34.574Z,30.00
2022-11-20T02:39:42.402Z,29.80
2022-11-20T02:44:51.037Z,30.50
2022-11-20T02:49:58.471Z,27.90
2022-11-20T02:55:06.710Z,35.50
2022-11-20T03:00:15.795Z,33.20
2022-11-20T03:05:22.866Z,33.10
2022-11-20T03:10:30.022Z,31.30
2022-11-20T03:15:37.690Z,31.20
2022-11-20T03:20:44.614Z,30.50
2022-11-20T03:25:51.611Z,33.50
2022-11-20T03:30:58.544Z,33.90
2022-11-20T03:36:07.659Z,35.00
2022-11-20T03:41:16.579Z,31.30
2022-11-20T03:46:24.102Z,30.40
2022-11-20T03:51:32.827Z,29.40
2022-11-20T03:56:40.733Z,26.90
2022-11-20T04:06:56.732Z,28.00
2022-11-20T04:12:06.968Z,33.30
2022-11-20T04:17:13.894Z,32.30
2022-11-20T04:22:20.969Z,29.80
2022-11-20T04:27:27.953Z,28.20
2022-11-20T04:32:35.149Z,31.00
2022-11-20T04:37:45.037Z,27.00
2022-11-20T04:42:51.964Z,31.20
2022-11-20T04:47:58.967Z,32.90
2022-11-20T04:53:05.945Z,34.40
2022-11-20T04:58:13.267Z,31.80
2022-11-20T05:03:20.159Z,31.30
2022-11-20T05:08:27.092Z,30.20
2022-11-20T05:13:34.148Z,27.10
2022-11-20T05:18:42.330Z,27.40
2022-11-20T05:23:50.009Z,28.40
2022-11-20T05:28:57.060Z,29.10
2022-11-20T05:34:04.037Z,28.90
2022-11-20T05:39:10.915Z,28.10
2022-11-20T05:44:18.009Z,27.00
2022-11-20T05:49:25.023Z,24.10
2022-11-20T05:54:31.992Z,23.70
2022-11-20T05:59:38.944Z,33.20
2022-11-20T06:04:46.017Z,26.70
2022-11-20T06:09:52.881Z,28.20
2022-11-20T06:14:59.829Z,28.40
2022-11-20T06:20:08.473Z,26.90
2022-11-20T06:25:15.939Z,28.90
2022-11-20T06:30:25.122Z,34.70
2022-11-20T06:35:32.205Z,34.70
2022-11-20T06:40:41.710Z,32.40
2022-11-20T06:45:55.599Z,29.90
2022-11-20T06:51:04.854Z,30.80
2022-11-20T06:56:11.926Z,28.60
2022-11-20T07:01:19.340Z,29.30
2022-11-20T07:06:26.320Z,31.00
2022-11-20T07:11:33.254Z,30.50
2022-11-20T07:16:43.684Z,26.80
2022-11-20T07:21:50.746Z,28.50
2022-11-20T07:27:00.971Z,25.50
2022-11-20T07:32:08.416Z,28.90
2022-11-20T07:37:15.658Z,30.50
2022-11-20T07:42:22.629Z,31.30
2022-11-20T07:47:36.664Z,29.00
2022-11-20T07:52:43.741Z,27.00
2022-11-20T07:57:59.685Z,28.20
2022-11-20T08:03:08.736Z,31.10
2022-11-20T08:08:15.803Z,32.00
2022-11-20T08:13:40.408Z,37.80
2022-11-20T08:18:47.352Z,34.30
2022-11-20T08:23:59.098Z,33.30
2022-11-20T08:29:07.445Z,29.00
2022-11-20T08:34:18.767Z,30.20
2022-11-20T08:39:26.158Z,30.50
2022-11-20T08:44:33.172Z,32.40
2022-11-20T08:49:40.082Z,35.60
2022-11-20T08:54:47.680Z,33.40
2022-11-20T09:00:10.488Z,30.90
2022-11-20T09:05:18.115Z,32.10
2022-11-20T09:10:25.689Z,34.40
2022-11-20T09:15:36.092Z,33.80
2022-11-20T09:20:43.196Z,32.30
2022-11-20T09:25:50.304Z,33.20
2022-11-20T09:30:57.219Z,37.00
2022-11-20T09:36:04.258Z,31.50
2022-11-20T09:41:38.456Z,34.70
2022-11-20T09:46:54.720Z,32.20
2022-11-20T09:52:06.615Z,31.40
2022-11-20T09:57:16.731Z,35.80
2022-11-20T10:02:31.722Z,34.20
2022-11-20T10:07:45.280Z,36.20
2022-11-20T10:13:09.155Z,34.00
2022-11-20T10:18:30.699Z,38.10
2022-11-20T10:23:56.330Z,38.10
2022-11-20T10:29:21.467Z,40.30
2022-11-20T10:34:32.582Z,42.10
2022-11-20T10:39:50.223Z,42.80
2022-11-20T10:45:06.853Z,43.40
2022-11-20T10:50:22.472Z,43.10
2022-11-20T10:55:41.319Z,43.20
2022-11-20T11:00:48.450Z,41.30
2022-11-20T11:06:05.414Z,50.90
2022-11-20T11:11:23.313Z,43.40
2022-11-20T11:16:31.498Z,43.90
2022-11-20T11:21:43.025Z,39.50
2022-11-20T11:26:58.312Z,41.20
2022-11-20T11:32:12.498Z,41.20
2022-11-20T11:37:23.916Z,46.00
2022-11-20T11:42:32.469Z,42.10
2022-11-20T11:47:52.608Z,42.60
2022-11-20T11:53:10.917Z,39.10
2022-11-20T11:58:44.022Z,37.90
2022-11-20T12:04:08.976Z,41.70
2022-11-20T12:09:16.151Z,40.00
2022-11-20T12:14:29.552Z,39.00
2022-11-20T12:19:37.604Z,36.70
2022-11-20T12:24:57.049Z,36.00
2022-11-20T12:30:08.789Z,33.70
2022-11-20T12:35:34.535Z,35.00
2022-11-20T12:40:50.994Z,37.10
2022-11-20T12:46:17.107Z,36.80
2022-11-20T12:51:43.184Z,33.90
2022-11-20T12:57:03.568Z,36.70
2022-11-20T13:02:27.607Z,40.10
2022-11-20T13:07:37.500Z,41.30
2022-11-20T13:12:50.582Z,43.80
2022-11-20T13:18:01.391Z,42.00
2022-11-20T13:23:08.313Z,41.10
2022-11-20T13:28:34.240Z,48.70
2022-11-20T13:33:42.370Z,48.60
2022-11-20T13:38:54.184Z,42.00
2022-11-20T13:44:09.236Z,45.20
2022-11-20T13:49:24.974Z,38.90
2022-11-20T13:54:57.986Z,36.60
2022-11-20T14:00:12.721Z,33.80
2022-11-20T14:05:25.150Z,35.50
2022-11-20T14:10:32.988Z,31.50
2022-11-20T14:15:44.769Z,33.50
2022-11-20T14:20:52.485Z,36.40
2022-11-20T14:25:59.505Z,32.00
2022-11-20T14:31:06.490Z,29.70
2022-11-20T14:36:22.101Z,28.10
2022-11-20T14:41:29.237Z,28.80
2022-11-20T14:46:37.440Z,30.20
2022-11-20T14:51:46.146Z,29.40
2022-11-20T14:56:59.610Z,32.10
2022-11-20T15:02:11.542Z,29.10
2022-11-20T15:07:29.412Z,30.30
2022-11-20T15:12:39.804Z,30.40
2022-11-20T15:17:53.004Z,37.00
2022-11-20T15:23:00.112Z,31.10
2022-11-20T15:28:13.525Z,32.50
2022-11-20T15:33:20.909Z,32.40
2022-11-20T15:38:27.766Z,35.30
2022-11-20T15:43:35.065Z,33.80
2022-11-20T15:48:47.919Z,31.30
2022-11-20T15:53:56.571Z,31.50
2022-11-20T16:04:14.351Z,29.70
2022-11-20T16:09:21.472Z,34.40
2022-11-20T16:14:47.280Z,35.30
2022-11-20T16:19:54.234Z,39.40
2022-11-20T16:25:01.199Z,35.60
2022-11-20T16:30:10.499Z,36.10
2022-11-20T16:35:18.325Z,32.20
2022-11-20T16:40:26.739Z,32.80
2022-11-20T16:45:34.698Z,34.00
2022-11-20T16:50:49.465Z,36.30
2022-11-20T16:55:56.367Z,34.50
2022-11-20T17:01:10.859Z,38.60
2022-11-20T17:06:20.238Z,35.10
2022-11-20T17:11:28.346Z,33.30
2022-11-20T17:16:36.647Z,32.80
2022-11-20T17:21:43.779Z,33.10
2022-11-20T17:26:51.356Z,35.90
2022-11-20T17:31:58.362Z,31.90
2022-11-20T17:37:05.263Z,39.10
2022-11-20T17:42:36.971Z,39.30
2022-11-20T17:47:46.658Z,33.80
2022-11-20T17:52:53.714Z,33.20
2022-11-20T17:58:03.036Z,35.90
2022-11-20T18:03:09.946Z,33.70
2022-11-20T18:08:16.993Z,34.00
2022-11-20T18:13:47.721Z,36.00
2022-11-20T18:18:56.890Z,38.30
2022-11-20T18:24:03.843Z,35.60
2022-11-20T18:29:10.954Z,36.20
2022-11-20T18:34:18.191Z,34.00
2022-11-20T18:39:25.149Z,34.40
2022-11-20T18:44:51.166Z,33.20
2022-11-20T18:50:01.291Z,59.50
2022-11-20T18:55:10.291Z,36.00
2022-11-20T19:00:18.717Z,31.90
2022-11-20T19:05:25.721Z,32.30
2022-11-20T19:10:32.750Z,31.90
2022-11-20T19:15:39.645Z,32.40
2022-11-20T19:20:46.640Z,34.40
2022-11-20T19:25:53.605Z,28.70
2022-11-20T19:31:05.818Z,31.00
2022-11-20T19:36:15.269Z,35.30
2022-11-20T19:41:29.156Z,33.90
2022-11-20T19:46:37.740Z,32.40
2022-11-20T19:51:48.286Z,33.50
2022-11-20T19:56:55.191Z,34.50
2022-11-20T20:02:03.787Z,33.90
2022-11-20T20:07:10.887Z,33.00
2022-11-20T20:12:17.827Z,39.80
2022-11-20T20:17:24.785Z,37.60
2022-11-20T20:22:31.709Z,36.40
2022-11-20T20:27:38.603Z,38.80
2022-11-20T20:32:45.536Z,37.30
2022-11-20T20:37:52.602Z,37.80
2022-11-20T20:42:59.558Z,34.90
2022-11-20T20:48:07.811Z,35.60
2022-11-20T20:53:14.914Z,37.40
2022-11-20T20:58:21.948Z,35.60
2022-11-20T21:03:32.889Z,35.60
2022-11-20T21:08:42.170Z,31.10
2022-11-20T21:13:51.553Z,31.70
2022-11-20T21:18:58.904Z,33.90
2022-11-20T21:24:06.695Z,33.70
2022-11-20T21:29:14.051Z,29.70
2022-11-20T21:34:21.871Z,38.20
2022-11-20T21:39:30.550Z,33.10
2022-11-20T21:44:38.894Z,33.00
2022-11-20T21:49:45.857Z,31.80
2022-11-20T21:54:52.795Z,32.10
2022-11-20T21:59:59.697Z,33.60
2022-11-20T22:05:07.293Z,34.30
2022-11-20T22:10:18.431Z,30.40
2022-11-20T22:15:53.136Z,35.40
2022-11-20T22:20:52.684Z,32.90
2022-11-20T22:26:04.846Z,32.80
2022-11-20T22:31:12.928Z,33.40
2022-11-20T22:41:28.344Z,34.00
2022-11-20T22:46:37.335Z,32.30
2022-11-20T22:51:44.533Z,36.20
2022-11-20T22:56:51.486Z,34.20
2022-11-20T23:01:58.492Z,40.80
2022-11-20T23:07:05.453Z,39.80
2022-11-20T23:12:12.598Z,38.30
2022-11-20T23:17:19.708Z,36.10
2022-11-20T23:22:26.731Z,38.70
2022-11-20T23:27:33.609Z,40.20
2022-11-20T23:32:40.555Z,36.50
2022-11-20T23:37:53.385Z,38.00
2022-11-20T23:43:22.932Z,36.90
2022-11-20T23:48:32.407Z,40.30
2022-11-20T23:53:39.372Z,40.60
2022-11-20T23:58:46.601Z,38.00
